Voyager Of The Seas — C6SE5 — position and weather

sailwx.info

Track history (hours):
 
Tides and Currents Weather Stations Pressure Air Temp Water Temp Dewpoint Dewpoint Depression Visibility Wind Speed Wind Dir Waves Ship Positions

Voyager Of The Seas

Operator: Royal Caribbean Cruises Ltd

Last reported at 2016-Jul-26 09:33 UTC. Time now 2016-Jul-28 08:31 UTC.
Position N 22°02' E 114°25'.

Type: Passenger vessel. MMSI: 311317000.

Date/timePositionNaut miles runAvg speedWind from/ knotsBaromVisibWave heightAir tempDewpointWater temp
2016-Jul-26 09:33N 22°02' E 114°25'1615.7
2016-Jul-26 08:32N 22°15' E 114°16'4 3.7
2016-Jul-26 07:28N 22°18' E 114°13'0 0.0
2016-Jul-26 06:31N 22°18' E 114°13'0 0.0
2016-Jul-26 05:31N 22°18' E 114°13'0 0.0
2016-Jul-26 04:28N 22°18' E 114°13'0 0.0
2016-Jul-26 03:31N 22°18' E 114°13'0 0.0
2016-Jul-26 02:31N 22°18' E 114°13'0 0.0
2016-Jul-26 01:25N 22°18' E 114°13'0 0.0
2016-Jul-26 00:31N 22°18' E 114°13'0 0.0
2016-Jul-25 23:19N 22°18' E 114°13'0 0.2
2016-Jul-25 22:31N 22°18' E 114°13'10 8.6
2016-Jul-25 21:18N 22°13' E 114°23'  
2016-Jul-22 23:16N 25°10' E 121°02'1216.3
2016-Jul-22 22:31N 25°02' E 120°52'2116.4
2016-Jul-22 21:16N 24°47' E 120°36'3215.4
2016-Jul-22 19:10N 24°20' E 120°16'914.9
2016-Jul-22 18:33N 24°12' E 120°11'1515.4
2016-Jul-22 17:33N 23°59' E 120°02'1717.4
2016-Jul-22 16:33N 23°43' E 119°56'2222.1
2016-Jul-22 15:32N 23°21' E 119°56'3919.9
2016-Jul-22 13:34N 22°43' E 120°08'1413.2
2016-Jul-22 12:30N 22°33' E 120°19'4 4.2
2016-Jul-22 11:32N 22°37' E 120°17'0 0.0
2016-Jul-22 10:32N 22°37' E 120°17'0 0.0
2016-Jul-22 09:32N 22°37' E 120°17'0 0.0
2016-Jul-22 08:32N 22°37' E 120°17'0 0.0
2016-Jul-22 07:32N 22°37' E 120°17'0 0.1
2016-Jul-22 04:33N 22°37' E 120°17'5 4.6
2016-Jul-22 03:33N 22°32' E 120°16'1313.2
2016-Jul-22 02:33N 22°29' E 120°02'32311.5
2016-Jul-20 22:28N 22°18' E 114°13'  
2016-Jul-16 22:32N 22°18' E 114°13'  
Track history (hours):
 
Tides and Currents Weather Stations Pressure Air Temp Water Temp Dewpoint Dewpoint Depression Visibility Wind Speed Wind Dir Waves Ship Positions

Voyager Of The Seas

Operator: Royal Caribbean Cruises Ltd

Last reported at 2016-Jul-26 09:33 UTC. Time now 2016-Jul-28 08:31 UTC.
Position N 22°02' E 114°25'.

Type: Passenger vessel. MMSI: 311317000.

Date/timePositionNaut miles runAvg speedWind from/ knotsBaromVisibWave heightAir tempDewpointWater temp
2016-Jul-26 09:33N 22°02' E 114°25'1615.7
2016-Jul-26 08:32N 22°15' E 114°16'4 3.7
2016-Jul-26 07:28N 22°18' E 114°13'0 0.0
2016-Jul-26 06:31N 22°18' E 114°13'0 0.0
2016-Jul-26 05:31N 22°18' E 114°13'0 0.0
2016-Jul-26 04:28N 22°18' E 114°13'0 0.0
2016-Jul-26 03:31N 22°18' E 114°13'0 0.0
2016-Jul-26 02:31N 22°18' E 114°13'0 0.0
2016-Jul-26 01:25N 22°18' E 114°13'0 0.0
2016-Jul-26 00:31N 22°18' E 114°13'0 0.0
2016-Jul-25 23:19N 22°18' E 114°13'0 0.2
2016-Jul-25 22:31N 22°18' E 114°13'10 8.6
2016-Jul-25 21:18N 22°13' E 114°23'  
2016-Jul-22 23:16N 25°10' E 121°02'1216.3
2016-Jul-22 22:31N 25°02' E 120°52'2116.4
2016-Jul-22 21:16N 24°47' E 120°36'3215.4
2016-Jul-22 19:10N 24°20' E 120°16'914.9
2016-Jul-22 18:33N 24°12' E 120°11'1515.4
2016-Jul-22 17:33N 23°59' E 120°02'1717.4
2016-Jul-22 16:33N 23°43' E 119°56'2222.1
2016-Jul-22 15:32N 23°21' E 119°56'3919.9
2016-Jul-22 13:34N 22°43' E 120°08'1413.2
2016-Jul-22 12:30N 22°33' E 120°19'4 4.2
2016-Jul-22 11:32N 22°37' E 120°17'0 0.0
2016-Jul-22 10:32N 22°37' E 120°17'0 0.0
2016-Jul-22 09:32N 22°37' E 120°17'0 0.0
2016-Jul-22 08:32N 22°37' E 120°17'0 0.0
2016-Jul-22 07:32N 22°37' E 120°17'0 0.1
2016-Jul-22 04:33N 22°37' E 120°17'5 4.6
2016-Jul-22 03:33N 22°32' E 120°16'1313.2
2016-Jul-22 02:33N 22°29' E 120°02'32311.5
2016-Jul-20 22:28N 22°18' E 114°13'  
2016-Jul-16 22:32N 22°18' E 114°13'  

Dump ship's entire track history